createdAt,value
2017-11-26T00:01:27.084Z,8.30
2017-11-26T00:03:57.142Z,8.30
2017-11-26T00:06:27.749Z,8.30
2017-11-26T00:08:56.753Z,8.30
2017-11-26T00:11:27.455Z,8.00
2017-11-26T00:13:57.824Z,8.10
2017-11-26T00:16:27.302Z,8.10
2017-11-26T00:18:57.488Z,7.90
2017-11-26T00:21:27.512Z,7.60
2017-11-26T00:23:58.387Z,7.40
2017-11-26T00:26:27.870Z,7.40
2017-11-26T00:28:57.496Z,7.50
2017-11-26T00:31:27.740Z,7.70
2017-11-26T00:33:57.734Z,7.70
2017-11-26T00:36:28.499Z,7.50
2017-11-26T00:38:57.997Z,7.50
2017-11-26T00:41:26.935Z,7.60
2017-11-26T00:43:55.734Z,7.60
2017-11-26T00:46:24.520Z,7.60
2017-11-26T00:48:54.110Z,7.60
2017-11-26T00:51:22.848Z,7.60
2017-11-26T00:53:51.863Z,7.50
2017-11-26T00:56:20.689Z,7.50
2017-11-26T00:58:49.678Z,7.60
2017-11-26T01:01:18.498Z,7.40
2017-11-26T01:03:47.160Z,6.90
2017-11-26T01:06:16.855Z,7.30
2017-11-26T01:08:45.588Z,7.30
2017-11-26T01:11:14.469Z,7.50
2017-11-26T01:13:43.444Z,7.20
2017-11-26T01:16:12.276Z,7.30
2017-11-26T01:18:41.764Z,7.20
2017-11-26T01:21:10.488Z,7.20
2017-11-26T01:23:39.586Z,7.30
2017-11-26T01:26:09.872Z,7.10
2017-11-26T01:28:38.541Z,7.10
2017-11-26T01:31:07.434Z,7.20
2017-11-26T01:33:36.465Z,7.40
2017-11-26T01:36:05.404Z,7.50
2017-11-26T01:38:34.394Z,7.50
2017-11-26T01:41:03.241Z,7.60
2017-11-26T01:43:33.176Z,7.60
2017-11-26T01:46:02.088Z,7.50
2017-11-26T01:48:30.733Z,7.50
2017-11-26T01:51:00.475Z,7.40
2017-11-26T01:53:30.783Z,7.50
2017-11-26T01:56:00.855Z,7.30
2017-11-26T01:58:30.611Z,7.30
2017-11-26T02:00:59.440Z,7.20
2017-11-26T02:03:28.264Z,7.30
2017-11-26T02:05:57.232Z,7.40
2017-11-26T02:08:26.003Z,7.30
2017-11-26T02:10:54.736Z,7.50
2017-11-26T02:13:23.656Z,7.60
2017-11-26T02:15:52.764Z,7.60
2017-11-26T02:18:21.696Z,7.60
2017-11-26T02:20:50.663Z,7.60
2017-11-26T02:23:20.071Z,7.50
2017-11-26T02:25:48.864Z,7.40
2017-11-26T02:28:17.805Z,7.30
2017-11-26T02:30:46.633Z,7.30
2017-11-26T02:33:27.065Z,7.40
2017-11-26T02:38:54.329Z,7.40
2017-11-26T02:41:23.245Z,7.40
2017-11-26T02:43:52.702Z,7.40
2017-11-26T02:46:21.546Z,7.40
2017-11-26T02:48:51.056Z,7.20
2017-11-26T02:51:19.998Z,7.20
2017-11-26T02:53:48.791Z,7.00
2017-11-26T02:56:18.490Z,7.00
2017-11-26T02:58:47.998Z,7.00
2017-11-26T03:01:17.004Z,7.00
2017-11-26T03:03:50.644Z,6.60
2017-11-26T03:06:19.492Z,6.60
2017-11-26T03:08:48.900Z,6.60
2017-11-26T03:11:17.766Z,6.50
2017-11-26T03:13:46.754Z,6.50
2017-11-26T03:16:15.964Z,6.50
2017-11-26T03:18:44.798Z,6.70
2017-11-26T03:21:13.545Z,7.00
2017-11-26T03:23:42.282Z,7.20
2017-11-26T03:26:11.020Z,7.20
2017-11-26T03:28:39.912Z,7.20
2017-11-26T03:31:08.695Z,7.10
2017-11-26T03:33:38.211Z,6.90
2017-11-26T03:36:07.604Z,6.90
2017-11-26T03:38:37.117Z,6.70
2017-11-26T03:41:06.167Z,6.60
2017-11-26T03:43:35.142Z,6.90
2017-11-26T03:46:04.950Z,7.00
2017-11-26T03:48:34.882Z,6.80
2017-11-26T03:51:03.704Z,6.70
2017-11-26T03:53:32.645Z,6.70
2017-11-26T03:56:02.114Z,6.70
2017-11-26T03:58:31.024Z,6.70
2017-11-26T04:00:59.933Z,6.70
2017-11-26T04:03:29.437Z,6.70
2017-11-26T04:05:59.020Z,6.60
2017-11-26T04:08:28.287Z,6.60
2017-11-26T04:10:56.969Z,6.80
2017-11-26T04:13:25.965Z,6.90
2017-11-26T04:15:54.808Z,7.00
2017-11-26T04:18:23.632Z,7.00
2017-11-26T04:20:52.501Z,7.00
2017-11-26T04:23:21.221Z,6.90
2017-11-26T04:25:50.293Z,6.80
2017-11-26T04:28:19.013Z,6.50
2017-11-26T04:30:47.866Z,6.50
2017-11-26T04:33:16.588Z,6.50
2017-11-26T04:35:45.334Z,6.60
2017-11-26T04:38:14.799Z,6.50
2017-11-26T04:40:43.565Z,6.50
2017-11-26T04:43:12.467Z,6.50
2017-11-26T04:45:41.249Z,6.60
2017-11-26T04:48:11.016Z,6.60
2017-11-26T04:50:39.815Z,6.60
2017-11-26T04:53:08.588Z,6.80
2017-11-26T04:55:38.528Z,6.90
2017-11-26T04:58:07.740Z,6.90
2017-11-26T05:00:36.555Z,6.70
2017-11-26T05:03:05.410Z,6.50
2017-11-26T05:05:34.358Z,6.50
2017-11-26T05:08:03.397Z,6.60
2017-11-26T05:10:32.270Z,6.60
2017-11-26T05:13:01.670Z,6.50
2017-11-26T05:15:31.013Z,6.40
2017-11-26T05:18:00.471Z,6.10
2017-11-26T05:20:29.911Z,6.10
2017-11-26T05:22:58.938Z,6.10
2017-11-26T05:25:27.940Z,6.10
2017-11-26T05:27:56.706Z,6.00
2017-11-26T05:30:25.405Z,6.10
2017-11-26T05:32:54.264Z,5.80
2017-11-26T05:35:22.965Z,6.00
2017-11-26T05:37:51.656Z,5.90
2017-11-26T05:40:20.663Z,5.90
2017-11-26T05:42:49.877Z,6.10
2017-11-26T05:45:19.473Z,6.40
2017-11-26T05:47:48.165Z,6.30
2017-11-26T05:50:17.693Z,6.50
2017-11-26T05:52:46.582Z,6.50
2017-11-26T05:55:15.292Z,6.40
2017-11-26T05:57:44.856Z,6.40
2017-11-26T06:00:13.662Z,6.40
2017-11-26T06:02:42.469Z,6.40
2017-11-26T06:05:11.908Z,6.10
2017-11-26T06:07:41.195Z,6.10
2017-11-26T06:10:11.781Z,6.40
2017-11-26T06:12:41.769Z,6.30
2017-11-26T06:15:11.410Z,6.30
2017-11-26T06:17:42.375Z,6.30
2017-11-26T06:20:11.343Z,6.30
2017-11-26T06:22:40.061Z,6.40
2017-11-26T06:25:08.986Z,6.50
2017-11-26T06:27:38.024Z,6.50
2017-11-26T06:30:07.155Z,6.40
2017-11-26T06:32:35.849Z,6.40
2017-11-26T06:35:04.763Z,6.30
2017-11-26T06:37:33.610Z,6.20
2017-11-26T06:40:02.466Z,6.30
2017-11-26T06:42:31.213Z,6.30
2017-11-26T06:44:59.865Z,6.10
2017-11-26T06:47:28.642Z,6.20
2017-11-26T06:49:57.391Z,5.90
2017-11-26T06:52:26.079Z,6.00
2017-11-26T06:54:54.895Z,6.00
2017-11-26T06:57:23.568Z,5.90
2017-11-26T06:59:52.353Z,5.80
2017-11-26T07:02:21.903Z,5.90
2017-11-26T07:04:51.423Z,6.10
2017-11-26T07:07:20.964Z,6.00
2017-11-26T07:09:49.710Z,6.00
2017-11-26T07:12:18.795Z,6.10
2017-11-26T07:14:47.633Z,6.10
2017-11-26T07:17:17.374Z,6.00
2017-11-26T07:19:46.422Z,6.00
2017-11-26T07:22:15.280Z,6.10
2017-11-26T07:24:44.264Z,6.00
2017-11-26T07:27:13.039Z,5.90
2017-11-26T07:29:44.108Z,5.70
2017-11-26T07:32:13.352Z,5.70
2017-11-26T07:34:44.551Z,5.70
2017-11-26T07:37:13.384Z,5.70
2017-11-26T07:39:44.173Z,5.80
2017-11-26T07:42:13.722Z,5.80
2017-11-26T07:44:42.489Z,6.10
2017-11-26T07:47:11.225Z,6.10
2017-11-26T07:49:41.084Z,6.00
2017-11-26T07:52:09.892Z,6.00
2017-11-26T07:54:41.639Z,5.90
2017-11-26T07:57:10.444Z,5.80
2017-11-26T07:59:39.091Z,5.90
2017-11-26T08:02:08.196Z,5.90
2017-11-26T08:04:37.011Z,6.10
2017-11-26T08:07:05.756Z,6.10
2017-11-26T08:09:34.607Z,6.10
2017-11-26T08:12:04.542Z,6.20
2017-11-26T08:14:34.176Z,6.20
2017-11-26T08:17:02.835Z,6.20
2017-11-26T08:19:31.555Z,6.20
2017-11-26T08:22:00.477Z,6.30
2017-11-26T08:24:29.092Z,6.40
2017-11-26T08:26:58.053Z,6.20
2017-11-26T08:29:26.688Z,6.40
2017-11-26T08:31:55.395Z,6.50
2017-11-26T08:34:24.315Z,6.50
2017-11-26T08:36:53.885Z,6.40
2017-11-26T08:39:22.549Z,6.30
2017-11-26T08:41:51.290Z,6.30
2017-11-26T08:44:19.953Z,6.50
2017-11-26T08:46:48.676Z,6.50
2017-11-26T08:49:17.669Z,6.50
2017-11-26T08:51:46.407Z,6.50
2017-11-26T08:54:15.321Z,6.40
2017-11-26T08:56:44.307Z,6.60
2017-11-26T08:59:13.163Z,6.70
2017-11-26T09:01:42.803Z,6.80
2017-11-26T09:04:11.558Z,6.80
2017-11-26T09:06:40.303Z,6.80
2017-11-26T09:09:09.012Z,6.70
2017-11-26T09:11:37.687Z,6.80
2017-11-26T09:14:06.498Z,6.80
2017-11-26T09:16:35.435Z,6.60
2017-11-26T09:19:04.061Z,6.70
2017-11-26T09:21:32.958Z,6.70
2017-11-26T09:24:01.860Z,6.60
2017-11-26T09:26:30.514Z,6.50
2017-11-26T09:28:59.260Z,6.70
2017-11-26T09:31:28.746Z,6.90
2017-11-26T09:33:57.826Z,6.90
2017-11-26T09:36:26.551Z,6.80
2017-11-26T09:38:55.959Z,6.80
2017-11-26T09:41:24.747Z,6.80
2017-11-26T09:43:53.561Z,6.90
2017-11-26T09:46:22.515Z,6.60
2017-11-26T09:48:51.375Z,6.10
2017-11-26T09:51:21.175Z,6.60
2017-11-26T09:53:49.800Z,6.60
2017-11-26T09:56:19.451Z,6.50
2017-11-26T09:58:48.213Z,6.50
2017-11-26T10:01:17.386Z,6.50
2017-11-26T10:03:47.965Z,6.20
2017-11-26T10:06:17.388Z,6.20
2017-11-26T10:08:46.206Z,5.90
2017-11-26T10:11:15.747Z,5.90
2017-11-26T10:13:44.495Z,5.90
2017-11-26T10:16:13.190Z,6.30
2017-11-26T10:18:41.828Z,6.40
2017-11-26T10:21:10.652Z,6.70
2017-11-26T10:23:39.489Z,6.80
2017-11-26T10:26:08.280Z,6.70
2017-11-26T10:28:37.143Z,6.70
2017-11-26T10:31:06.576Z,6.60
2017-11-26T10:33:36.110Z,6.60
2017-11-26T10:36:06.160Z,6.70
2017-11-26T10:38:34.816Z,6.70
2017-11-26T10:41:03.509Z,6.60
2017-11-26T10:43:32.251Z,6.50
2017-11-26T10:46:01.846Z,6.50
2017-11-26T10:48:30.613Z,6.30
2017-11-26T10:50:59.303Z,6.40
2017-11-26T10:53:28.021Z,6.70
2017-11-26T10:55:56.837Z,7.00
2017-11-26T10:58:25.572Z,7.20
2017-11-26T11:00:54.454Z,7.40
2017-11-26T11:03:23.140Z,7.10
2017-11-26T11:05:52.175Z,7.10
2017-11-26T11:08:20.994Z,7.50
2017-11-26T11:10:50.707Z,7.90
2017-11-26T11:13:19.396Z,7.90
2017-11-26T11:15:49.928Z,7.50
2017-11-26T11:18:19.377Z,7.50
2017-11-26T11:20:48.201Z,7.70
2017-11-26T11:23:17.208Z,8.00
2017-11-26T11:25:46.832Z,7.70
2017-11-26T11:28:15.675Z,7.60
2017-11-26T11:30:44.418Z,7.40
2017-11-26T11:33:14.168Z,7.60
2017-11-26T11:35:43.623Z,7.60
2017-11-26T11:38:12.271Z,7.60
2017-11-26T11:40:41.046Z,7.90
2017-11-26T11:43:09.926Z,8.20
2017-11-26T11:45:38.669Z,7.50
2017-11-26T11:48:07.738Z,7.20
2017-11-26T11:50:36.408Z,7.60
2017-11-26T11:53:05.175Z,7.50
2017-11-26T11:55:33.920Z,7.80
2017-11-26T11:58:02.922Z,8.10
2017-11-26T12:00:31.893Z,7.90
2017-11-26T12:03:00.799Z,8.20
2017-11-26T12:05:29.710Z,8.60
2017-11-26T12:07:58.430Z,8.70
2017-11-26T12:10:28.046Z,8.50
2017-11-26T12:12:56.824Z,8.50
2017-11-26T12:15:25.560Z,8.30
2017-11-26T12:17:54.393Z,8.40
2017-11-26T12:20:24.008Z,9.40
2017-11-26T12:22:52.843Z,9.40
2017-11-26T12:25:21.611Z,9.70
2017-11-26T12:27:50.416Z,10.10
2017-11-26T12:30:20.061Z,9.20
2017-11-26T12:32:48.845Z,9.20
2017-11-26T12:35:17.523Z,8.70
2017-11-26T12:37:46.309Z,8.60
2017-11-26T12:40:15.863Z,8.30
2017-11-26T12:42:44.739Z,8.20
2017-11-26T12:45:13.564Z,8.30
2017-11-26T12:47:42.400Z,8.60
2017-11-26T12:50:11.198Z,8.50
2017-11-26T12:52:40.779Z,7.90
2017-11-26T12:55:09.875Z,7.80
2017-11-26T12:57:38.541Z,7.60
2017-11-26T13:00:07.406Z,8.00
2017-11-26T13:02:37.175Z,8.00
2017-11-26T13:05:06.080Z,8.00
2017-11-26T13:07:34.900Z,7.60
2017-11-26T13:10:03.707Z,7.70
2017-11-26T13:12:32.399Z,7.60
2017-11-26T13:15:01.068Z,7.10
2017-11-26T13:17:29.994Z,7.30
2017-11-26T13:19:59.734Z,7.30
2017-11-26T13:22:28.472Z,7.40
2017-11-26T13:24:57.516Z,7.50
2017-11-26T13:27:26.768Z,7.40
2017-11-26T13:29:55.810Z,7.50
2017-11-26T13:32:24.742Z,7.40
2017-11-26T13:34:54.185Z,7.50
2017-11-26T13:37:24.729Z,7.50
2017-11-26T13:39:54.199Z,7.50
2017-11-26T13:42:25.078Z,7.40
2017-11-26T13:44:55.186Z,7.10
2017-11-26T13:47:24.167Z,7.10
2017-11-26T13:49:52.878Z,7.00
2017-11-26T13:52:22.489Z,6.70
2017-11-26T13:54:51.573Z,6.70
2017-11-26T13:57:20.678Z,6.60
2017-11-26T13:59:49.633Z,6.40
2017-11-26T14:02:18.906Z,6.50
2017-11-26T14:04:48.081Z,6.30
2017-11-26T14:07:16.960Z,6.30
2017-11-26T14:09:45.860Z,6.30
2017-11-26T14:12:15.101Z,6.40
2017-11-26T14:14:44.432Z,6.10
2017-11-26T14:17:13.254Z,6.00
2017-11-26T14:19:41.929Z,6.00
2017-11-26T14:22:10.749Z,6.10
2017-11-26T14:24:40.165Z,6.60
2017-11-26T14:27:08.980Z,6.60
2017-11-26T14:29:37.676Z,6.50
2017-11-26T14:32:06.613Z,6.60
2017-11-26T14:34:35.450Z,6.50
2017-11-26T14:37:04.400Z,6.30
2017-11-26T14:39:33.128Z,6.10
2017-11-26T14:42:01.975Z,5.90
2017-11-26T14:44:31.101Z,5.80
2017-11-26T14:47:00.079Z,5.80
2017-11-26T14:49:28.790Z,5.70
2017-11-26T14:51:57.485Z,5.50
2017-11-26T14:54:26.758Z,5.40
2017-11-26T14:56:55.460Z,5.40
2017-11-26T14:59:24.276Z,5.30
2017-11-26T15:01:53.019Z,5.40
2017-11-26T15:04:21.765Z,5.50
2017-11-26T15:06:50.801Z,5.50
2017-11-26T15:09:19.846Z,5.40
2017-11-26T15:11:48.670Z,5.40
2017-11-26T15:14:17.433Z,5.20
2017-11-26T15:16:46.231Z,5.50
2017-11-26T15:19:15.162Z,5.80
2017-11-26T15:21:43.837Z,5.50
2017-11-26T15:24:12.558Z,5.30
2017-11-26T15:26:41.489Z,5.20
2017-11-26T15:29:10.311Z,5.00
2017-11-26T15:31:39.023Z,5.20
2017-11-26T15:34:08.749Z,5.20
2017-11-26T15:36:37.691Z,5.10
2017-11-26T15:39:06.990Z,5.10
2017-11-26T15:41:35.864Z,4.80
2017-11-26T15:44:05.249Z,4.90
2017-11-26T15:46:34.233Z,5.00
2017-11-26T15:49:03.138Z,5.10
2017-11-26T15:51:31.802Z,5.30
2017-11-26T15:54:00.596Z,5.20
2017-11-26T15:56:30.184Z,5.60
2017-11-26T15:58:59.128Z,5.60
2017-11-26T16:01:28.108Z,5.50
2017-11-26T16:03:56.981Z,5.70
2017-11-26T16:06:25.900Z,5.40
2017-11-26T16:08:55.553Z,5.40
2017-11-26T16:11:24.377Z,4.90
2017-11-26T16:13:53.416Z,4.90
2017-11-26T16:16:22.168Z,5.00
2017-11-26T16:18:51.125Z,5.20
2017-11-26T16:21:20.728Z,4.80
2017-11-26T16:23:49.532Z,4.80
2017-11-26T16:26:18.361Z,4.70
2017-11-26T16:28:48.228Z,4.90
2017-11-26T16:31:17.100Z,4.90
2017-11-26T16:33:45.859Z,5.00
2017-11-26T16:36:15.036Z,5.10
2017-11-26T16:38:43.916Z,5.00
2017-11-26T16:41:13.212Z,5.10
2017-11-26T16:43:42.067Z,4.90
2017-11-26T16:46:10.875Z,4.90
2017-11-26T16:48:39.556Z,4.90
2017-11-26T16:51:08.550Z,4.80
2017-11-26T16:53:37.236Z,5.10
2017-11-26T16:56:06.147Z,5.40
2017-11-26T16:58:34.798Z,5.10
2017-11-26T17:01:03.771Z,5.00
2017-11-26T17:03:33.642Z,5.10
2017-11-26T17:06:02.455Z,5.10
2017-11-26T17:08:31.998Z,5.20
2017-11-26T17:11:01.010Z,5.10
2017-11-26T17:13:29.762Z,5.10
2017-11-26T17:15:59.432Z,5.40
2017-11-26T17:18:28.225Z,5.40
2017-11-26T17:20:57.748Z,5.70
2017-11-26T17:23:26.542Z,5.50
2017-11-26T17:25:55.263Z,5.00
2017-11-26T17:28:23.940Z,5.10
2017-11-26T17:30:53.460Z,5.10
2017-11-26T17:33:22.988Z,4.90
2017-11-26T17:35:51.786Z,4.90
2017-11-26T17:38:20.673Z,5.20
2017-11-26T17:40:50.307Z,5.60
2017-11-26T17:43:19.141Z,5.60
2017-11-26T17:45:48.796Z,5.30
2017-11-26T17:48:17.741Z,5.30
2017-11-26T17:50:46.668Z,5.10
2017-11-26T17:53:15.321Z,5.30
2017-11-26T17:55:44.177Z,5.60
2017-11-26T17:58:13.026Z,5.30
2017-11-26T18:00:41.777Z,5.40
2017-11-26T18:03:10.790Z,5.30
2017-11-26T18:05:40.115Z,5.30
2017-11-26T18:08:09.684Z,5.00
2017-11-26T18:10:38.387Z,5.00
2017-11-26T18:13:07.834Z,5.10
2017-11-26T18:15:36.693Z,4.90
2017-11-26T18:18:05.414Z,4.90
2017-11-26T18:20:35.323Z,5.20
2017-11-26T18:23:04.144Z,5.40
2017-11-26T18:25:33.804Z,5.40
2017-11-26T18:28:02.686Z,5.30
2017-11-26T18:30:32.174Z,5.70
2017-11-26T18:33:01.581Z,5.20
2017-11-26T18:35:30.435Z,5.10
2017-11-26T18:37:59.339Z,5.20
2017-11-26T18:40:28.070Z,5.20
2017-11-26T18:42:56.703Z,5.30
2017-11-26T18:45:25.514Z,5.40
2017-11-26T18:47:54.213Z,5.20
2017-11-26T18:50:23.611Z,5.40
2017-11-26T18:52:52.247Z,5.40
2017-11-26T18:55:21.103Z,5.30
2017-11-26T18:57:49.949Z,5.10
2017-11-26T19:00:19.449Z,5.00
2017-11-26T19:02:48.144Z,5.00
2017-11-26T19:05:17.706Z,5.20
2017-11-26T19:07:46.762Z,5.20
2017-11-26T19:10:16.275Z,5.00
2017-11-26T19:12:45.144Z,5.00
2017-11-26T19:15:14.549Z,5.00
2017-11-26T19:17:43.394Z,5.00
2017-11-26T19:20:12.577Z,5.00
2017-11-26T19:22:41.373Z,4.90
2017-11-26T19:25:10.134Z,4.80
2017-11-26T19:27:39.680Z,4.90
2017-11-26T19:30:08.563Z,4.90
2017-11-26T19:32:37.224Z,4.80
2017-11-26T19:35:06.160Z,4.70
2017-11-26T19:37:35.681Z,4.50
2017-11-26T19:40:04.458Z,4.50
2017-11-26T19:42:33.297Z,4.50
2017-11-26T19:45:02.039Z,4.30
2017-11-26T19:47:30.746Z,4.30
2017-11-26T19:49:59.933Z,4.40
2017-11-26T19:52:29.441Z,4.60
2017-11-26T19:54:58.347Z,4.60
2017-11-26T19:57:27.157Z,4.50
2017-11-26T19:59:55.926Z,4.50
2017-11-26T20:02:24.648Z,4.40
2017-11-26T20:04:53.462Z,4.40
2017-11-26T20:07:22.201Z,4.60
2017-11-26T20:09:51.076Z,4.90
2017-11-26T20:12:20.059Z,4.90
2017-11-26T20:14:48.776Z,4.80
2017-11-26T20:17:17.719Z,4.80
2017-11-26T20:19:46.820Z,4.60
2017-11-26T20:22:16.020Z,4.80
2017-11-26T20:24:45.872Z,4.80
2017-11-26T20:27:14.707Z,4.80
2017-11-26T20:29:43.920Z,4.90
2017-11-26T20:32:13.204Z,5.10
2017-11-26T20:34:42.040Z,4.70
2017-11-26T20:37:11.196Z,4.50
2017-11-26T20:39:40.945Z,4.40
2017-11-26T20:42:09.722Z,4.60
2017-11-26T20:44:38.603Z,4.20
2017-11-26T20:47:07.320Z,4.20
2017-11-26T20:49:36.619Z,4.30
2017-11-26T20:52:05.422Z,4.50
2017-11-26T20:54:34.145Z,4.50
2017-11-26T20:57:03.668Z,4.30
2017-11-26T20:59:32.409Z,4.30
2017-11-26T21:02:01.377Z,4.40
2017-11-26T21:04:30.074Z,4.50
2017-11-26T21:06:59.559Z,4.70
2017-11-26T21:09:28.368Z,4.90
2017-11-26T21:11:57.818Z,4.50
2017-11-26T21:14:26.592Z,4.50
2017-11-26T21:16:55.276Z,4.60
2017-11-26T21:19:24.347Z,4.60
2017-11-26T21:21:54.299Z,4.90
2017-11-26T21:24:23.858Z,4.60
2017-11-26T21:26:53.412Z,4.40
2017-11-26T21:29:22.551Z,4.40
2017-11-26T21:31:51.270Z,4.30
2017-11-26T21:34:20.094Z,4.20
2017-11-26T21:36:48.840Z,4.30
2017-11-26T21:39:17.526Z,4.50
2017-11-26T21:41:46.385Z,4.60
2017-11-26T21:44:16.284Z,4.20
2017-11-26T21:46:45.278Z,4.20
2017-11-26T21:49:14.825Z,3.80
2017-11-26T21:51:43.541Z,3.80
2017-11-26T21:54:12.837Z,3.90
2017-11-26T21:56:42.640Z,4.00
2017-11-26T21:59:11.385Z,3.50
2017-11-26T22:01:40.100Z,3.40
2017-11-26T22:04:09.136Z,3.70
2017-11-26T22:06:38.856Z,3.90
2017-11-26T22:09:07.615Z,3.90
2017-11-26T22:11:36.350Z,4.00
2017-11-26T22:14:05.045Z,3.70
2017-11-26T22:16:33.801Z,3.80
2017-11-26T22:19:02.579Z,3.90
2017-11-26T22:21:31.572Z,4.00
2017-11-26T22:24:00.411Z,4.10
2017-11-26T22:26:30.095Z,3.90
2017-11-26T22:28:58.736Z,3.90
2017-11-26T22:31:27.478Z,3.70
2017-11-26T22:33:56.106Z,4.00
2017-11-26T22:36:24.936Z,4.30
2017-11-26T22:38:54.451Z,4.40
2017-11-26T22:41:24.068Z,4.40
2017-11-26T22:43:52.928Z,4.40
2017-11-26T22:46:21.696Z,4.10
2017-11-26T22:48:50.625Z,3.90
2017-11-26T22:51:19.349Z,3.50
2017-11-26T22:53:48.257Z,3.50
2017-11-26T22:56:17.703Z,3.50
2017-11-26T22:58:46.648Z,3.30
2017-11-26T23:01:15.641Z,3.00
2017-11-26T23:03:51.798Z,3.00
2017-11-26T23:06:20.807Z,3.20
2017-11-26T23:08:49.588Z,3.30
2017-11-26T23:11:18.376Z,3.10
2017-11-26T23:13:47.871Z,3.70
2017-11-26T23:16:16.622Z,3.70
2017-11-26T23:18:45.411Z,3.50
2017-11-26T23:21:14.591Z,3.50
2017-11-26T23:23:43.622Z,3.20
2017-11-26T23:26:12.375Z,3.20
2017-11-26T23:28:41.359Z,3.60
2017-11-26T23:31:10.255Z,3.80
2017-11-26T23:33:39.762Z,3.90
2017-11-26T23:36:08.824Z,3.90
2017-11-26T23:38:37.460Z,3.80
2017-11-26T23:41:06.364Z,3.80
2017-11-26T23:43:35.334Z,3.50
2017-11-26T23:46:03.964Z,3.30
2017-11-26T23:48:32.669Z,3.50
2017-11-26T23:51:01.633Z,3.50
2017-11-26T23:53:30.385Z,3.20
2017-11-26T23:55:59.036Z,3.30
2017-11-26T23:58:27.771Z,3.30
